Terminal Aerodrome Forecast
Issued by NWS Lake Charles, LA

Current Version | Previous Version | Text Only | Print | Product List | Glossary On
Versions: 1 2 3 4 5 6 7 8 9 10 11 12 13 14
000
FTUS44 KLCH 051729
TAFLCH
TAF
KLCH 051729Z 0518/0618 14017G23KT P6SM SCT040 BKN170
     FM052300 12008KT P6SM SCT035 SCT250
     FM060400 10007KT P6SM SCT022 BKN035
     FM061000 10007KT P6SM SCT015 OVC021
     FM061500 13010KT P6SM BKN030 BKN250=

USA.gov is the U.S. government's official web portal to all federal, state and local government web resources and services.